createdAt,value
2022-12-23T00:00:39.332Z,40.10
2022-12-23T00:03:12.684Z,37.13
2022-12-23T00:05:41.285Z,43.42
2022-12-23T00:08:08.173Z,45.30
2022-12-23T00:13:27.411Z,44.08
2022-12-23T00:25:42.264Z,38.63
2022-12-23T00:31:20.172Z,41.70
2022-12-23T00:34:04.097Z,37.92
2022-12-23T00:36:39.444Z,36.20
2022-12-23T00:39:15.420Z,30.90
2022-12-23T00:41:46.521Z,40.95
2022-12-23T00:44:16.106Z,38.20
2022-12-23T00:46:55.057Z,43.58
2022-12-23T00:49:39.160Z,36.70
2022-12-23T00:52:08.197Z,33.47
2022-12-23T00:54:40.943Z,50.55
2022-12-23T00:57:14.069Z,40.10
2022-12-23T00:59:40.786Z,38.42
2022-12-23T01:02:18.728Z,37.47
2022-12-23T01:04:51.371Z,36.65
2022-12-23T01:07:24.632Z,38.42
2022-12-23T01:10:09.708Z,39.57
2022-12-23T01:12:52.022Z,42.78
2022-12-23T01:15:33.348Z,35.05
2022-12-23T01:18:00.060Z,42.38
2022-12-23T01:20:26.926Z,38.53
2022-12-23T01:23:01.995Z,34.57
2022-12-23T01:25:34.869Z,36.60
2022-12-23T01:28:14.791Z,36.30
2022-12-23T01:30:49.143Z,34.50
2022-12-23T01:33:26.620Z,35.70
2022-12-23T01:36:19.475Z,32.97
2022-12-23T01:38:46.768Z,34.75
2022-12-23T01:41:22.870Z,31.83
2022-12-23T01:43:52.651Z,34.90
2022-12-23T01:46:28.304Z,38.22
2022-12-23T01:51:47.207Z,26.80
2022-12-23T01:54:25.840Z,22.88
2022-12-23T01:57:07.727Z,28.85
2022-12-23T01:59:39.648Z,27.88
2022-12-23T02:02:12.727Z,22.00
2022-12-23T02:04:50.171Z,21.25
2022-12-23T02:07:29.572Z,19.33
2022-12-23T02:10:09.515Z,17.52
2022-12-23T02:12:57.795Z,22.38
2022-12-23T02:16:09.174Z,21.17
2022-12-23T02:22:20.332Z,23.20
2022-12-23T02:28:21.479Z,26.00
2022-12-23T02:31:33.177Z,23.20
2022-12-23T02:37:34.774Z,27.17
2022-12-23T02:40:19.842Z,25.40
2022-12-23T02:43:10.755Z,26.55
2022-12-23T02:46:21.535Z,21.17
2022-12-23T02:51:56.480Z,21.00
2022-12-23T02:54:36.928Z,27.08
2022-12-23T02:57:21.618Z,23.63
2022-12-23T02:59:50.844Z,22.80
2022-12-23T03:02:18.677Z,24.02
2022-12-23T03:04:45.658Z,21.58
2022-12-23T03:07:30.246Z,22.98
2022-12-23T03:10:08.596Z,20.83
2022-12-23T03:13:21.944Z,21.70
2022-12-23T03:16:27.031Z,22.60
2022-12-23T03:19:41.546Z,22.48
2022-12-23T03:22:48.348Z,29.10
2022-12-23T03:25:33.773Z,20.63
2022-12-23T03:28:57.874Z,22.53
2022-12-23T03:31:41.206Z,26.67
2022-12-23T03:34:22.130Z,23.00
2022-12-23T03:36:55.863Z,26.70
2022-12-23T03:39:57.525Z,24.90
2022-12-23T03:42:42.102Z,26.03
2022-12-23T03:45:41.506Z,25.95
2022-12-23T03:48:38.687Z,21.35
2022-12-23T03:51:16.530Z,25.23
2022-12-23T03:53:50.614Z,23.75
2022-12-23T03:56:50.486Z,23.30
2022-12-23T03:59:36.291Z,25.98
2022-12-23T04:02:41.925Z,24.17
2022-12-23T04:05:53.047Z,23.77
2022-12-23T04:08:52.472Z,26.60
2022-12-23T04:11:35.991Z,27.50
2022-12-23T04:14:02.844Z,19.98
2022-12-23T04:16:41.018Z,22.48
2022-12-23T04:19:10.493Z,25.55
2022-12-23T04:24:17.951Z,23.63
2022-12-23T04:26:47.295Z,18.80
2022-12-23T04:29:19.907Z,20.65
2022-12-23T04:32:01.784Z,18.45
2022-12-23T04:34:43.006Z,22.13
2022-12-23T04:37:10.839Z,23.63
2022-12-23T04:39:46.840Z,21.50
2022-12-23T04:42:13.549Z,19.63
2022-12-23T04:44:48.992Z,18.15
2022-12-23T04:47:25.933Z,18.73
2022-12-23T04:50:22.860Z,21.03
2022-12-23T04:52:51.917Z,19.45
2022-12-23T04:55:30.659Z,15.95
2022-12-23T04:58:12.328Z,20.95
2022-12-23T05:00:49.221Z,17.83
2022-12-23T05:03:27.732Z,22.37
2022-12-23T05:06:04.103Z,23.33
2022-12-23T05:08:49.430Z,21.33
2022-12-23T05:11:30.704Z,18.15
2022-12-23T05:16:28.989Z,19.63
2022-12-23T05:18:57.482Z,19.02
2022-12-23T05:21:24.321Z,23.08
2022-12-23T05:23:54.255Z,22.30
2022-12-23T05:26:26.958Z,21.38
2022-12-23T05:31:48.394Z,26.48
2022-12-23T05:34:24.074Z,22.52
2022-12-23T05:39:46.981Z,23.75
2022-12-23T05:42:13.781Z,22.23
2022-12-23T05:44:40.662Z,29.08
2022-12-23T05:47:10.329Z,26.48
2022-12-23T05:49:37.273Z,27.52
2022-12-23T05:52:05.151Z,22.70
2022-12-23T05:54:43.590Z,24.70
2022-12-23T05:59:54.493Z,33.03
2022-12-23T06:02:33.500Z,33.97
2022-12-23T06:05:00.427Z,28.55
2022-12-23T06:07:39.716Z,23.63
2022-12-23T06:10:24.550Z,27.80
2022-12-23T06:13:12.235Z,26.98
2022-12-23T06:15:57.675Z,23.35
2022-12-23T06:18:42.073Z,28.38
2022-12-23T06:21:14.932Z,26.10
2022-12-23T06:23:53.053Z,26.58
2022-12-23T06:26:20.202Z,28.67
2022-12-23T06:28:56.141Z,24.80
2022-12-23T06:31:22.799Z,28.77
2022-12-23T06:33:58.616Z,22.90
2022-12-23T06:36:45.794Z,29.98
2022-12-23T06:39:27.324Z,28.08
2022-12-23T06:42:08.871Z,27.80
2022-12-23T06:44:41.903Z,27.25
2022-12-23T06:50:58.825Z,25.63
2022-12-23T06:53:33.573Z,23.70
2022-12-23T07:22:15.116Z,22.42
2022-12-23T07:24:50.934Z,20.77
2022-12-23T07:34:02.723Z,24.63
2022-12-23T07:36:41.803Z,20.20
2022-12-23T07:39:17.684Z,21.38
2022-12-23T07:42:16.372Z,22.63
2022-12-23T07:47:41.953Z,22.03
2022-12-23T07:50:24.370Z,20.67
2022-12-23T07:53:03.049Z,20.17
2022-12-23T07:58:52.816Z,22.80
2022-12-23T08:01:28.302Z,22.57
2022-12-23T08:04:04.326Z,24.92
2022-12-23T08:06:35.519Z,24.80
2022-12-23T08:09:05.298Z,27.65
2022-12-23T08:11:43.970Z,26.27
2022-12-23T08:14:19.218Z,30.10
2022-12-23T08:16:52.032Z,31.90
2022-12-23T08:19:31.011Z,30.85
2022-12-23T08:22:19.091Z,51.55
2022-12-23T08:25:00.688Z,60.50
2022-12-23T08:27:39.018Z,56.73
2022-12-23T08:30:14.444Z,52.17
2022-12-23T08:32:59.750Z,53.58
2022-12-23T08:35:35.495Z,64.28
2022-12-23T08:38:17.362Z,57.33
2022-12-23T08:40:47.493Z,57.80
2022-12-23T08:43:17.740Z,52.60
2022-12-23T08:45:47.922Z,58.80
2022-12-23T08:48:22.153Z,56.95
2022-12-23T08:51:07.013Z,56.35
2022-12-23T08:53:46.722Z,49.50
2022-12-23T08:56:20.131Z,47.00
2022-12-23T08:58:56.016Z,42.97
2022-12-23T09:01:45.148Z,44.95
2022-12-23T09:04:37.933Z,44.28
2022-12-23T09:07:22.777Z,41.80
2022-12-23T09:10:10.734Z,44.38
2022-12-23T09:12:57.995Z,42.15
2022-12-23T09:18:50.556Z,39.70
2022-12-23T09:29:35.504Z,33.08
2022-12-23T09:32:21.151Z,33.58
2022-12-23T09:34:56.967Z,33.67
2022-12-23T09:37:23.787Z,34.88
2022-12-23T09:40:14.901Z,21.42
2022-12-23T09:43:51.331Z,25.73
2022-12-23T09:46:38.390Z,19.70
2022-12-23T09:49:18.019Z,17.43
2022-12-23T09:54:58.144Z,21.92
2022-12-23T10:04:33.921Z,27.00
2022-12-23T10:07:22.781Z,21.83
2022-12-23T10:10:14.729Z,28.10
2022-12-23T10:12:55.103Z,33.38
2022-12-23T10:15:44.724Z,39.90
2022-12-23T10:22:17.057Z,34.10
2022-12-23T10:25:02.062Z,38.15
2022-12-23T10:27:42.711Z,41.97
2022-12-23T10:39:41.004Z,44.25
2022-12-23T10:43:18.673Z,46.13
2022-12-23T10:49:47.997Z,56.73
2022-12-23T10:55:37.155Z,52.50
2022-12-23T10:58:15.368Z,54.40
2022-12-23T11:04:13.752Z,41.07
2022-12-23T11:07:18.322Z,47.58
2022-12-23T11:13:11.838Z,46.22
2022-12-23T11:15:55.147Z,38.65
2022-12-23T11:18:27.261Z,47.13
2022-12-23T11:21:05.773Z,44.33
2022-12-23T11:23:41.166Z,44.47
2022-12-23T11:26:20.539Z,41.72
2022-12-23T11:32:35.751Z,43.13
2022-12-23T11:35:44.742Z,49.20
2022-12-23T11:38:23.555Z,46.65
2022-12-23T11:40:53.537Z,54.53
2022-12-23T11:43:27.557Z,48.75
2022-12-23T11:46:32.615Z,53.60
2022-12-23T11:49:34.185Z,51.95
2022-12-23T11:52:14.083Z,48.85
2022-12-23T11:55:21.785Z,58.10
2022-12-23T11:57:49.877Z,57.92
2022-12-23T14:05:00.200Z,25.75
2022-12-23T14:31:05.606Z,21.27
2022-12-23T17:13:12.115Z,21.15
2022-12-23T17:55:59.846Z,20.40
2022-12-23T17:58:29.738Z,26.38
2022-12-23T18:01:36.154Z,20.63
2022-12-23T19:37:06.803Z,52.25
2022-12-23T19:42:12.665Z,60.88
2022-12-23T19:44:45.511Z,42.93
2022-12-23T20:36:40.705Z,26.25
2022-12-23T20:46:14.152Z,21.35
2022-12-23T20:55:20.741Z,21.50
2022-12-23T20:58:16.073Z,25.20
2022-12-23T21:50:39.565Z,29.00
2022-12-23T22:18:09.498Z,24.02
2022-12-23T22:20:45.849Z,23.38
2022-12-23T22:23:13.468Z,31.67
2022-12-23T22:25:43.011Z,25.73
2022-12-23T22:28:22.692Z,27.83
2022-12-23T22:31:18.692Z,26.95
2022-12-23T22:34:02.082Z,24.00
2022-12-23T22:53:40.518Z,25.33
2022-12-23T22:56:19.829Z,22.35
2022-12-23T22:58:58.160Z,19.00
2022-12-23T23:02:02.187Z,20.45
2022-12-23T23:04:31.599Z,22.40
2022-12-23T23:07:03.595Z,27.13
2022-12-23T23:13:32.415Z,30.02
2022-12-23T23:16:09.685Z,28.42
2022-12-23T23:44:43.343Z,35.03
2022-12-23T23:47:24.442Z,34.72
2022-12-23T23:50:04.313Z,35.42
2022-12-23T23:52:33.471Z,27.73
